Etusivu
METAR-TAF:

METAR-TAF

Lentoasemat :

Pruniers

Romorantin, Ranska

Leveyspiiri: 47-19N, Pituuspiiri: 001-41E, korkeus merenpinnasta: 85 m

Tämänhetkinen sää

Tämä raportti tehtiin 21 minuuttia sitten, kello 15.00 UTC
Tuuli 10 kn etelästä, vaihdellen etelän/kaakon ja lounaan välillä
Lämpötila 24°C
Kosteus 54%
Ilmanpaine 1005 hPa
Näkyvyys 10 km tai enemmän
ei pilviä alle 1500 m:ssä eikä cumulonimbus-pilviä

METAR: LFYR 141500Z AUTO 18010KT 150V220 CAVOK 24/14 Q1005 TEMPO VRB35G55KT 2000 TSRAGS SCT015 BKN040CB

Aika: 17:21 (15:21 UTC)


TAF: puuttuu

Säähavainnot ja -ennusteet yli 4000 lentoasemalta (METAR- ja TAF-raportit).

Käytössä olevat sääasemat on merkitty karttaan keltaisilla ja punaisilla pisteillä.

Aseta hiiri pisteen päälle nähdäksesi sääaseman nimen.

Klikkaa sitten nähdäksesi säähavainnot ja -ennusteet.

Kartan vaihtaminen: klikkaa mustalla rastilla varustettuja vihreitä pisteitä, niin voit zoomata sisään; viivalla varustettua vihreää pistettä, niin voit zoomata ulos tai vihreitä nuolia, niin pääset viereisille kartoille.


METAR-TAF: